createdAt,value
2023-09-12T00:01:14.919Z,17.50
2023-09-12T00:03:42.813Z,21.50
2023-09-12T00:06:10.730Z,22.30
2023-09-12T00:08:38.404Z,17.90
2023-09-12T00:11:07.914Z,19.70
2023-09-12T00:13:35.756Z,19.70
2023-09-12T00:16:03.431Z,17.30
2023-09-12T00:18:31.506Z,19.20
2023-09-12T00:21:02.171Z,16.40
2023-09-12T00:23:30.087Z,19.30
2023-09-12T00:25:58.668Z,17.80
2023-09-12T00:28:26.534Z,24.50
2023-09-12T00:30:54.298Z,20.00
2023-09-12T00:33:22.347Z,17.50
2023-09-12T00:35:50.129Z,17.50
2023-09-12T00:38:17.802Z,24.20
2023-09-12T00:40:45.460Z,18.40
2023-09-12T00:43:13.332Z,19.60
2023-09-12T00:45:41.336Z,12.70
2023-09-12T00:48:10.653Z,17.80
2023-09-12T00:50:38.359Z,19.10
2023-09-12T00:53:06.121Z,16.30
2023-09-12T00:55:34.301Z,16.50
2023-09-12T00:58:02.877Z,16.60
2023-09-12T01:00:30.529Z,17.40
2023-09-12T01:02:59.277Z,16.90
2023-09-12T01:05:27.285Z,15.20
2023-09-12T01:07:55.257Z,17.30
2023-09-12T01:10:22.824Z,19.00
2023-09-12T01:12:50.478Z,18.40
2023-09-12T01:15:18.371Z,15.00
2023-09-12T01:17:46.653Z,21.30
2023-09-12T01:20:26.540Z,12.70
2023-09-12T01:22:56.069Z,19.10
2023-09-12T01:25:41.450Z,15.50
2023-09-12T01:28:10.533Z,15.60
2023-09-12T01:30:38.229Z,20.20
2023-09-12T01:33:06.192Z,20.00
2023-09-12T01:35:33.931Z,20.20
2023-09-12T01:38:01.600Z,13.70
2023-09-12T01:40:52.226Z,15.40
2023-09-12T01:43:23.145Z,9.10
2023-09-12T01:45:55.249Z,8.70
2023-09-12T01:48:25.018Z,13.70
2023-09-12T01:50:52.667Z,14.90
2023-09-12T01:53:20.513Z,8.30
2023-09-12T01:57:15.314Z,14.70
2023-09-12T01:59:43.613Z,12.40
2023-09-12T02:02:11.592Z,10.20
2023-09-12T02:04:39.259Z,17.60
2023-09-12T02:07:07.525Z,12.90
2023-09-12T02:09:35.450Z,10.40
2023-09-12T02:12:03.449Z,13.10
2023-09-12T02:14:31.120Z,15.50
2023-09-12T02:16:59.464Z,15.00
2023-09-12T02:19:28.107Z,9.70
2023-09-12T02:21:56.664Z,9.10
2023-09-12T02:24:26.191Z,9.60
2023-09-12T02:26:53.930Z,10.10
2023-09-12T02:29:22.000Z,9.20
2023-09-12T02:31:49.713Z,8.50
2023-09-12T02:34:17.729Z,11.00
2023-09-12T02:36:45.404Z,11.80
2023-09-12T02:39:13.402Z,12.90
2023-09-12T02:41:41.124Z,13.90
2023-09-12T02:44:08.682Z,11.00
2023-09-12T02:46:37.998Z,9.20
2023-09-12T02:49:05.652Z,10.10
2023-09-12T02:51:33.342Z,8.70
2023-09-12T02:54:01.072Z,8.30
2023-09-12T02:56:28.832Z,8.20
2023-09-12T02:58:56.489Z,11.00
2023-09-12T03:01:24.183Z,11.20
2023-09-12T03:03:52.138Z,17.60
2023-09-12T03:06:19.989Z,14.90
2023-09-12T03:08:48.793Z,9.40
2023-09-12T03:11:16.540Z,16.10
2023-09-12T03:13:44.139Z,16.80
2023-09-12T03:16:12.606Z,12.40
2023-09-12T03:18:40.689Z,11.70
2023-09-12T03:21:09.203Z,13.00
2023-09-12T03:23:36.894Z,8.80
2023-09-12T03:26:05.169Z,8.90
2023-09-12T03:28:33.242Z,11.10
2023-09-12T03:31:15.687Z,14.10
2023-09-12T03:33:44.363Z,12.00
2023-09-12T03:36:12.430Z,9.80
2023-09-12T03:38:40.457Z,9.60
2023-09-12T03:41:08.749Z,13.20
2023-09-12T03:43:37.641Z,10.60
2023-09-12T03:46:05.740Z,15.90
2023-09-12T03:48:34.015Z,17.60
2023-09-12T03:51:02.373Z,15.40
2023-09-12T03:53:30.334Z,16.30
2023-09-12T03:55:59.121Z,17.00
2023-09-12T03:58:26.993Z,13.40
2023-09-12T04:00:54.751Z,11.10
2023-09-12T04:03:22.723Z,13.10
2023-09-12T04:05:52.837Z,16.70
2023-09-12T04:08:20.599Z,20.30
2023-09-12T04:10:48.273Z,24.00
2023-09-12T04:13:16.147Z,19.10
2023-09-12T04:15:43.876Z,20.80
2023-09-12T04:18:11.872Z,69.50
2023-09-12T04:20:39.724Z,29.40
2023-09-12T04:23:07.590Z,37.20
2023-09-12T04:25:35.251Z,24.50
2023-09-12T04:28:03.631Z,29.10
2023-09-12T04:30:32.771Z,29.10
2023-09-12T04:33:00.544Z,27.30
2023-09-12T04:35:28.259Z,34.60
2023-09-12T04:37:56.729Z,37.30
2023-09-12T04:40:24.410Z,23.70
2023-09-12T04:42:52.260Z,20.30
2023-09-12T04:45:19.933Z,21.10
2023-09-12T04:47:48.131Z,19.20
2023-09-12T04:50:15.959Z,17.90
2023-09-12T04:52:43.827Z,16.30
2023-09-12T04:55:11.490Z,21.70
2023-09-12T04:57:41.350Z,17.00
2023-09-12T05:00:12.298Z,12.20
2023-09-12T05:02:40.322Z,23.00
2023-09-12T05:05:08.376Z,19.20
2023-09-12T05:07:36.274Z,13.00
2023-09-12T05:10:05.125Z,26.40
2023-09-12T05:12:33.081Z,22.10
2023-09-12T05:15:00.974Z,22.80
2023-09-12T05:17:29.035Z,19.00
2023-09-12T05:19:58.079Z,15.60
2023-09-12T05:22:25.692Z,20.20
2023-09-12T05:24:53.353Z,17.50
2023-09-12T05:27:21.124Z,17.80
2023-09-12T05:29:48.981Z,23.90
2023-09-12T05:32:18.028Z,24.20
2023-09-12T05:34:46.659Z,15.20
2023-09-12T05:37:14.944Z,27.40
2023-09-12T05:39:43.200Z,18.80
2023-09-12T05:42:11.117Z,23.30
2023-09-12T05:44:38.839Z,22.30
2023-09-12T05:47:08.352Z,23.60
2023-09-12T05:49:36.124Z,18.80
2023-09-12T05:52:05.384Z,21.90
2023-09-12T05:54:33.437Z,19.30
2023-09-12T05:57:01.447Z,25.40
2023-09-12T05:59:29.111Z,19.40
2023-09-12T06:01:56.881Z,15.20
2023-09-12T06:04:25.656Z,19.20
2023-09-12T06:06:53.421Z,15.10
2023-09-12T06:09:21.204Z,18.40
2023-09-12T06:11:49.161Z,11.80
2023-09-12T06:14:16.816Z,15.70
2023-09-12T06:16:44.617Z,37.40
2023-09-12T06:19:12.343Z,20.50
2023-09-12T06:21:40.024Z,23.40
2023-09-12T06:24:15.249Z,42.10
2023-09-12T06:26:43.012Z,14.40
2023-09-12T06:29:10.778Z,21.30
2023-09-12T06:31:38.533Z,19.90
2023-09-12T06:34:06.304Z,23.30
2023-09-12T06:36:34.128Z,27.20
2023-09-12T06:39:02.355Z,20.70
2023-09-12T06:41:30.032Z,19.50
2023-09-12T06:43:59.787Z,27.30
2023-09-12T06:46:28.790Z,12.30
2023-09-12T06:48:57.548Z,19.30
2023-09-12T06:51:29.503Z,23.30
2023-09-12T06:53:58.858Z,19.00
2023-09-12T06:56:26.513Z,17.10
2023-09-12T06:58:56.326Z,16.20
2023-09-12T07:01:24.125Z,12.20
2023-09-12T07:03:55.510Z,10.90
2023-09-12T07:06:24.142Z,16.00
2023-09-12T07:08:52.814Z,10.70
2023-09-12T07:11:20.978Z,11.20
2023-09-12T07:13:49.655Z,13.70
2023-09-12T07:16:18.924Z,12.40
2023-09-12T07:18:47.815Z,16.50
2023-09-12T07:21:15.641Z,20.10
2023-09-12T07:23:43.459Z,28.10
2023-09-12T07:26:15.156Z,20.70
2023-09-12T07:28:42.806Z,16.20
2023-09-12T07:31:10.666Z,24.70
2023-09-12T07:33:38.521Z,22.20
2023-09-12T07:37:48.219Z,21.90
2023-09-12T07:40:15.676Z,20.20
2023-09-12T07:42:42.434Z,14.90
2023-09-12T07:45:10.834Z,14.10
2023-09-12T07:47:37.949Z,21.10
2023-09-12T07:50:07.183Z,24.20
2023-09-12T07:52:35.115Z,8.30
2023-09-12T07:55:03.179Z,6.00
2023-09-12T07:57:30.679Z,8.40
2023-09-12T07:59:57.783Z,6.00
2023-09-12T08:02:24.628Z,8.80
2023-09-12T08:04:51.522Z,6.00
2023-09-12T08:07:18.524Z,7.70
2023-09-12T08:09:56.727Z,14.40
2023-09-12T08:12:24.834Z,34.00
2023-09-12T08:14:52.451Z,21.30
2023-09-12T08:17:20.315Z,15.90
2023-09-12T08:19:47.260Z,40.80
2023-09-12T08:22:14.208Z,19.30
2023-09-12T08:24:41.247Z,14.70
2023-09-12T08:27:08.406Z,5.80
2023-09-12T08:29:35.439Z,24.80
2023-09-12T08:32:02.546Z,16.60
2023-09-12T08:34:29.745Z,9.60
2023-09-12T08:36:57.214Z,6.40
2023-09-12T08:39:25.502Z,10.10
2023-09-12T08:41:53.700Z,5.50
2023-09-12T08:44:21.385Z,11.60
2023-09-12T08:46:48.571Z,18.60
2023-09-12T08:49:16.148Z,7.30
2023-09-12T08:51:43.235Z,6.10
2023-09-12T08:54:10.320Z,4.30
2023-09-12T08:56:39.952Z,5.70
2023-09-12T08:59:06.769Z,3.60
2023-09-12T09:01:33.967Z,9.20
2023-09-12T09:04:03.227Z,8.10
2023-09-12T09:06:33.615Z,7.40
2023-09-12T09:09:01.003Z,7.30
2023-09-12T09:11:28.607Z,3.30
2023-09-12T09:13:56.885Z,11.80
2023-09-12T09:16:23.793Z,5.10
2023-09-12T09:19:01.347Z,3.70
2023-09-12T09:21:31.392Z,6.40
2023-09-12T09:24:05.801Z,6.90
2023-09-12T09:26:45.464Z,4.50
2023-09-12T09:29:15.979Z,3.70
2023-09-12T09:31:43.897Z,3.30
2023-09-12T09:34:14.335Z,5.50
2023-09-12T09:36:43.804Z,6.00
2023-09-12T09:39:11.565Z,9.30
2023-09-12T09:41:38.794Z,9.60
2023-09-12T09:44:09.216Z,9.70
2023-09-12T09:46:39.176Z,5.70
2023-09-12T09:49:07.731Z,9.00
2023-09-12T09:51:46.062Z,7.30
2023-09-12T09:54:14.210Z,10.80
2023-09-12T09:56:48.096Z,12.40
2023-09-12T09:59:21.423Z,9.70
2023-09-12T10:01:49.832Z,13.00
2023-09-12T10:04:16.892Z,5.00
2023-09-12T10:06:45.085Z,11.20
2023-09-12T10:09:13.364Z,7.10
2023-09-12T10:11:42.392Z,3.30
2023-09-12T10:14:09.215Z,13.30
2023-09-12T10:16:39.671Z,4.10
2023-09-12T10:19:25.576Z,11.40
2023-09-12T10:21:59.438Z,22.90
2023-09-12T10:24:26.715Z,5.10
2023-09-12T10:26:53.724Z,27.30
2023-09-12T10:29:20.562Z,18.40
2023-09-12T10:31:47.944Z,6.60
2023-09-12T10:34:17.262Z,20.20
2023-09-12T10:36:46.184Z,9.80
2023-09-12T10:39:13.358Z,7.50
2023-09-12T10:41:40.837Z,4.10
2023-09-12T10:44:11.553Z,4.90
2023-09-12T10:46:41.495Z,6.80
2023-09-12T10:49:11.986Z,3.40
2023-09-12T10:51:42.875Z,7.80
2023-09-12T10:54:13.865Z,34.80
2023-09-12T10:56:40.912Z,63.50
2023-09-12T10:59:07.770Z,25.40
2023-09-12T11:01:35.511Z,7.20
2023-09-12T11:04:31.482Z,3.70
2023-09-12T11:06:59.171Z,4.90
2023-09-12T11:09:29.038Z,6.70
2023-09-12T11:11:58.596Z,7.50
2023-09-12T11:14:26.911Z,6.50
2023-09-12T11:17:09.190Z,11.40
2023-09-12T11:19:49.355Z,12.70
2023-09-12T11:22:27.504Z,4.00
2023-09-12T11:24:56.844Z,11.00
2023-09-12T11:27:25.882Z,9.80
2023-09-12T11:29:52.803Z,7.20
2023-09-12T11:32:28.768Z,5.90
2023-09-12T11:34:55.805Z,4.20
2023-09-12T11:37:26.846Z,7.40
2023-09-12T11:39:54.894Z,3.20
2023-09-12T11:42:23.634Z,6.40
2023-09-12T11:44:50.751Z,3.40
2023-09-12T11:47:17.901Z,5.40
2023-09-12T11:49:45.153Z,3.90
2023-09-12T11:52:20.282Z,3.30
2023-09-12T11:54:47.242Z,4.60
2023-09-12T11:57:15.404Z,5.30
2023-09-12T11:59:47.378Z,22.20
2023-09-12T12:02:15.028Z,3.50
2023-09-12T12:04:42.358Z,21.60
2023-09-12T12:07:09.699Z,39.30
2023-09-12T12:09:36.676Z,7.70
2023-09-12T12:12:13.752Z,3.10
2023-09-12T12:14:41.737Z,4.20
2023-09-12T12:17:12.067Z,6.20
2023-09-12T12:19:39.567Z,6.10
2023-09-12T12:22:07.225Z,18.80
2023-09-12T12:24:45.982Z,16.40
2023-09-12T12:27:16.024Z,63.00
2023-09-12T12:29:44.491Z,22.90
2023-09-12T12:32:11.794Z,27.60
2023-09-12T12:35:35.323Z,67.20
2023-09-12T12:37:31.066Z,16.90
2023-09-12T12:39:59.079Z,19.70
2023-09-12T12:42:47.484Z,5.30
2023-09-12T12:45:20.649Z,16.70
2023-09-12T12:47:49.834Z,47.90
2023-09-12T12:50:20.046Z,44.60
2023-09-12T12:52:48.526Z,15.50
2023-09-12T12:55:17.512Z,46.40
2023-09-12T12:57:45.002Z,101.00
2023-09-12T13:00:16.018Z,67.70
2023-09-12T13:02:43.797Z,16.10
2023-09-12T13:05:30.389Z,19.00
2023-09-12T13:07:57.335Z,42.50
2023-09-12T13:10:24.880Z,48.20
2023-09-12T13:12:51.761Z,21.10
2023-09-12T13:15:19.388Z,20.30
2023-09-12T13:17:46.247Z,24.10
2023-09-12T13:20:13.070Z,12.60
2023-09-12T13:22:40.505Z,9.70
2023-09-12T13:25:08.294Z,22.10
2023-09-12T13:27:35.394Z,13.40
2023-09-12T13:30:04.136Z,9.10
2023-09-12T13:32:31.102Z,6.20
2023-09-12T13:34:58.016Z,13.70
2023-09-12T13:37:25.317Z,13.40
2023-09-12T13:39:52.254Z,6.50
2023-09-12T13:42:20.295Z,4.30
2023-09-12T13:44:48.354Z,11.70
2023-09-12T13:47:22.107Z,4.70
2023-09-12T13:49:49.814Z,12.30
2023-09-12T13:52:16.864Z,9.40
2023-09-12T13:54:44.273Z,14.50
2023-09-12T13:57:11.168Z,16.60
2023-09-12T13:59:45.235Z,7.20
2023-09-12T14:04:41.488Z,18.60
2023-09-12T14:07:09.587Z,11.70
2023-09-12T14:09:36.954Z,8.00
2023-09-12T14:12:10.036Z,5.90
2023-09-12T14:14:39.540Z,10.70
2023-09-12T14:17:07.497Z,7.10
2023-09-12T14:19:35.861Z,9.20
2023-09-12T14:22:04.279Z,8.20
2023-09-12T14:24:32.654Z,7.70
2023-09-12T14:27:01.304Z,9.50
2023-09-12T14:29:30.825Z,14.40
2023-09-12T14:32:00.357Z,14.20
2023-09-12T14:34:28.313Z,9.40
2023-09-12T14:36:55.996Z,36.90
2023-09-12T14:39:23.550Z,13.30
2023-09-12T14:41:52.613Z,13.70
2023-09-12T14:44:19.556Z,15.30
2023-09-12T14:46:46.645Z,11.20
2023-09-12T14:49:14.091Z,13.00
2023-09-12T14:51:41.121Z,46.90
2023-09-12T14:54:08.152Z,22.70
2023-09-12T14:56:35.218Z,21.30
2023-09-12T14:59:03.794Z,11.00
2023-09-12T15:01:31.022Z,5.00
2023-09-12T15:03:58.256Z,6.00
2023-09-12T15:06:25.770Z,11.30
2023-09-12T15:08:53.194Z,4.40
2023-09-12T15:11:20.147Z,9.00
2023-09-12T15:13:47.517Z,11.30
2023-09-12T15:16:15.130Z,10.20
2023-09-12T15:18:42.858Z,10.20
2023-09-12T15:21:09.863Z,11.80
2023-09-12T15:23:38.139Z,10.00
2023-09-12T15:26:05.196Z,7.10
2023-09-12T15:28:32.237Z,12.40
2023-09-12T15:31:02.503Z,17.10
2023-09-12T15:33:30.528Z,9.50
2023-09-12T15:35:57.883Z,6.90
2023-09-12T15:38:24.834Z,11.00
2023-09-12T15:40:52.584Z,9.50
2023-09-12T15:43:24.383Z,6.10
2023-09-12T15:45:53.714Z,7.30
2023-09-12T15:48:20.846Z,14.00
2023-09-12T15:50:48.353Z,15.20
2023-09-12T15:53:15.911Z,12.70
2023-09-12T15:55:43.274Z,15.00
2023-09-12T15:58:10.604Z,13.40
2023-09-12T16:00:38.345Z,14.70
2023-09-12T16:03:05.603Z,13.00
2023-09-12T16:05:33.515Z,16.80
2023-09-12T16:08:00.353Z,18.80
2023-09-12T16:10:28.208Z,24.70
2023-09-12T16:12:55.224Z,52.90
2023-09-12T16:15:22.305Z,70.20
2023-09-12T16:17:49.238Z,51.20
2023-09-12T16:20:16.189Z,71.70
2023-09-12T16:22:43.551Z,57.50
2023-09-12T16:25:10.815Z,55.00
2023-09-12T16:27:38.004Z,49.80
2023-09-12T16:30:08.291Z,34.30
2023-09-12T16:32:37.000Z,39.10
2023-09-12T16:35:05.222Z,35.00
2023-09-12T16:37:33.091Z,13.20
2023-09-12T16:40:01.414Z,17.00
2023-09-12T16:42:30.998Z,20.70
2023-09-12T16:45:00.071Z,14.50
2023-09-12T16:47:30.410Z,17.30
2023-09-12T16:49:57.538Z,19.30
2023-09-12T16:52:24.594Z,26.30
2023-09-12T16:54:51.471Z,27.00
2023-09-12T16:57:18.302Z,29.70
2023-09-12T16:59:45.829Z,27.60
2023-09-12T17:02:13.144Z,38.20
2023-09-12T17:04:41.383Z,61.30
2023-09-12T17:07:10.896Z,77.30
2023-09-12T17:09:38.676Z,74.30
2023-09-12T17:12:07.206Z,101.00
2023-09-12T17:14:34.251Z,100.30
2023-09-12T17:17:01.427Z,94.90
2023-09-12T17:19:29.782Z,109.80
2023-09-12T17:21:56.877Z,87.60
2023-09-12T17:24:24.819Z,92.50
2023-09-12T17:26:51.764Z,86.40
2023-09-12T17:29:18.992Z,76.30
2023-09-12T17:31:45.979Z,86.00
2023-09-12T17:34:14.431Z,72.80
2023-09-12T17:36:41.437Z,62.30
2023-09-12T17:39:10.039Z,75.10
2023-09-12T17:41:37.186Z,117.90
2023-09-12T17:44:06.079Z,133.00
2023-09-12T17:46:34.189Z,107.80
2023-09-12T17:49:01.946Z,110.90
2023-09-12T17:51:31.444Z,134.50
2023-09-12T17:53:58.460Z,109.00
2023-09-12T17:56:25.514Z,111.90
2023-09-12T17:58:52.351Z,96.90
2023-09-12T18:01:19.800Z,112.40
2023-09-12T18:03:47.151Z,112.60
2023-09-12T18:06:15.025Z,133.10
2023-09-12T18:08:41.868Z,179.20
2023-09-12T18:11:11.993Z,168.30
2023-09-12T18:13:42.492Z,114.20
2023-09-12T18:16:10.154Z,114.20
2023-09-12T18:18:38.157Z,118.30
2023-09-12T18:21:05.095Z,109.40
2023-09-12T18:23:32.038Z,113.70
2023-09-12T18:26:00.051Z,112.90
2023-09-12T18:28:44.462Z,71.90
2023-09-12T18:31:13.141Z,81.90
2023-09-12T18:33:40.672Z,83.80
2023-09-12T18:36:09.289Z,88.50
2023-09-12T18:38:37.252Z,79.40
2023-09-12T18:41:04.610Z,85.50
2023-09-12T18:43:32.539Z,85.50
2023-09-12T18:46:00.608Z,124.20
2023-09-12T18:48:27.957Z,188.40
2023-09-12T18:50:56.294Z,140.30
2023-09-12T18:53:23.270Z,118.80
2023-09-12T18:55:50.487Z,111.00
2023-09-12T18:58:17.310Z,106.40
2023-09-12T19:00:44.899Z,88.40
2023-09-12T19:03:14.768Z,76.40
2023-09-12T19:05:43.430Z,77.60
2023-09-12T19:08:11.646Z,68.90
2023-09-12T19:10:39.311Z,73.10
2023-09-12T19:13:08.638Z,71.60
2023-09-12T19:15:38.805Z,73.60
2023-09-12T19:18:07.549Z,72.70
2023-09-12T19:20:34.972Z,81.00
2023-09-12T19:23:03.658Z,86.90
2023-09-12T19:25:30.610Z,132.20
2023-09-12T19:27:57.614Z,136.60
2023-09-12T19:30:26.358Z,120.60
2023-09-12T19:32:53.747Z,92.10
2023-09-12T19:35:20.835Z,90.70
2023-09-12T19:37:48.087Z,107.40
2023-09-12T19:40:16.684Z,115.30
2023-09-12T19:42:43.991Z,81.80
2023-09-12T19:45:11.268Z,76.70
2023-09-12T19:47:50.266Z,99.60
2023-09-12T19:50:25.127Z,76.00
2023-09-12T19:55:13.051Z,85.80
2023-09-12T19:57:46.652Z,67.20
2023-09-12T20:00:15.535Z,71.80
2023-09-12T20:02:45.310Z,65.90
2023-09-12T20:05:13.443Z,72.40
2023-09-12T20:07:41.209Z,65.90
2023-09-12T20:10:09.347Z,59.20
2023-09-12T20:12:37.070Z,69.60
2023-09-12T20:15:05.621Z,80.10
2023-09-12T20:17:33.227Z,58.20
2023-09-12T20:20:01.458Z,48.30
2023-09-12T20:22:31.069Z,42.20
2023-09-12T20:24:58.760Z,44.30
2023-09-12T20:27:27.023Z,47.10
2023-09-12T20:29:54.676Z,39.70
2023-09-12T20:32:22.329Z,43.10
2023-09-12T20:34:49.939Z,47.20
2023-09-12T20:37:18.592Z,47.60
2023-09-12T20:39:48.045Z,46.40
2023-09-12T20:42:15.743Z,44.20
2023-09-12T20:44:43.394Z,36.10
2023-09-12T20:47:10.951Z,33.00
2023-09-12T20:49:39.336Z,35.10
2023-09-12T20:52:07.095Z,31.40
2023-09-12T20:54:37.806Z,44.20
2023-09-12T20:57:06.055Z,29.40
2023-09-12T20:59:33.667Z,30.50
2023-09-12T21:02:01.440Z,29.10
2023-09-12T21:04:29.430Z,29.50
2023-09-12T21:06:57.099Z,36.40
2023-09-12T21:09:24.919Z,37.10
2023-09-12T21:11:52.583Z,41.50
2023-09-12T21:14:20.554Z,40.80
2023-09-12T21:16:48.536Z,41.90
2023-09-12T21:19:16.386Z,43.50
2023-09-12T21:21:44.405Z,48.40
2023-09-12T21:24:12.217Z,40.00
2023-09-12T21:26:39.889Z,53.40
2023-09-12T21:29:07.437Z,49.60
2023-09-12T21:31:35.366Z,54.00
2023-09-12T21:34:03.952Z,47.90
2023-09-12T21:36:32.778Z,49.80
2023-09-12T21:39:02.216Z,39.40
2023-09-12T21:41:30.252Z,50.60
2023-09-12T21:43:57.916Z,39.70
2023-09-12T21:46:25.646Z,48.30
2023-09-12T21:48:53.597Z,44.70
2023-09-12T21:51:21.816Z,40.00
2023-09-12T21:53:50.907Z,39.30
2023-09-12T21:56:18.467Z,34.60
2023-09-12T21:58:46.540Z,37.10
2023-09-12T22:01:14.254Z,40.40
2023-09-12T22:03:42.987Z,42.60
2023-09-12T22:06:12.840Z,39.80
2023-09-12T22:08:41.383Z,41.90
2023-09-12T22:11:09.148Z,41.30
2023-09-12T22:13:36.805Z,58.30
2023-09-12T22:16:05.517Z,65.60
2023-09-12T22:18:33.254Z,55.60
2023-09-12T22:21:01.025Z,47.40
2023-09-12T22:23:28.697Z,51.00
2023-09-12T22:25:58.078Z,52.00
2023-09-12T22:28:26.661Z,55.50
2023-09-12T22:30:55.015Z,61.40
2023-09-12T22:33:22.833Z,53.70
2023-09-12T22:36:08.303Z,62.30
2023-09-12T22:38:43.010Z,55.50
2023-09-12T22:41:11.388Z,51.40
2023-09-12T22:43:39.122Z,53.20
2023-09-12T22:46:08.771Z,63.00
2023-09-12T22:48:36.677Z,52.50
2023-09-12T22:51:05.207Z,62.20
2023-09-12T22:53:32.867Z,51.70
2023-09-12T22:56:01.040Z,48.10
2023-09-12T22:58:28.703Z,45.10
2023-09-12T23:00:56.983Z,44.10
2023-09-12T23:03:25.152Z,48.60
2023-09-12T23:05:53.527Z,45.50
2023-09-12T23:08:21.191Z,44.90
2023-09-12T23:10:49.094Z,43.90
2023-09-12T23:13:17.240Z,50.50
2023-09-12T23:15:44.955Z,51.10
2023-09-12T23:18:14.432Z,45.00
2023-09-12T23:20:42.503Z,41.70
2023-09-12T23:23:09.955Z,49.80
2023-09-12T23:25:38.049Z,49.50
2023-09-12T23:28:07.801Z,47.30
2023-09-12T23:30:35.418Z,46.40
2023-09-12T23:33:04.077Z,51.10
2023-09-12T23:38:56.919Z,57.90
2023-09-12T23:41:24.680Z,49.90
2023-09-12T23:43:52.248Z,46.40
2023-09-12T23:46:20.720Z,50.30
2023-09-12T23:48:48.678Z,36.60
2023-09-12T23:51:16.967Z,46.70
2023-09-12T23:53:45.651Z,39.90
2023-09-12T23:56:14.241Z,50.90
2023-09-12T23:58:41.792Z,46.30
